Time;durP1;ratioP1;P1;durP2;ratioP2;P2;SDS_P1;SDS_P2;PMS_P1;PMS_P2;Temp;Humidity;BMP_temperature;BMP_pressure;BME280_temperature;BME280_humidity;BME280_pressure;Samples;Min_cycle;Max_cycle;Signal;HPM_P1;HPM_P2
2022/07/20 03:02:01;;;;;;;8.30;3.80;;;22.70;77.70;;;;;;6310732;22;20432;-87
2022/07/20 03:04:27;;;;;;;9.73;4.45;;;22.60;77.50;;;;;;6313782;22;20011;-85
2022/07/20 03:06:52;;;;;;;10.05;4.13;;;22.70;77.70;;;;;;6313191;22;20462;-85
2022/07/20 03:09:18;;;;;;;8.23;3.90;;;22.70;77.90;;;;;;6313528;22;20047;-83
2022/07/20 03:11:44;;;;;;;6.93;3.78;;;22.60;77.80;;;;;;6308016;22;20096;-84
2022/07/20 03:14:09;;;;;;;9.15;3.70;;;22.60;77.90;;;;;;6308137;22;20057;-85
2022/07/20 03:16:35;;;;;;;7.18;3.97;;;22.60;77.90;;;;;;6308220;22;20459;-86
2022/07/20 03:19:01;;;;;;;6.30;3.67;;;22.50;78.00;;;;;;6308677;22;20015;-85
2022/07/20 03:21:26;;;;;;;8.40;3.63;;;22.50;77.90;;;;;;6308174;22;20015;-83
2022/07/20 03:23:52;;;;;;;8.45;3.90;;;22.50;78.10;;;;;;6308751;22;20125;-84
2022/07/20 03:26:19;;;;;;;12.00;4.03;;;22.40;78.30;;;;;;6307777;22;20007;-84
2022/07/20 03:28:45;;;;;;;8.43;3.83;;;22.40;78.60;;;;;;6307795;22;20083;-86
2022/07/20 03:31:11;;;;;;;8.57;3.80;;;22.40;78.60;;;;;;6307597;22;20007;-84
2022/07/20 03:33:37;;;;;;;7.65;3.92;;;22.30;78.80;;;;;;6307506;22;20027;-88
2022/07/20 03:36:03;;;;;;;9.80;4.13;;;22.30;78.80;;;;;;6282881;22;20015;-88
2022/07/20 03:38:29;;;;;;;6.32;3.78;;;22.30;79.00;;;;;;6308531;22;20444;-88
2022/07/20 03:40:55;;;;;;;10.98;4.13;;;22.30;79.10;;;;;;6307500;22;20007;-87
2022/07/20 03:43:21;;;;;;;6.57;3.90;;;22.20;79.10;;;;;;6307972;22;20011;-87
2022/07/20 03:45:47;;;;;;;9.07;4.25;;;22.20;79.30;;;;;;6283286;22;20483;-88
2022/07/20 03:48:13;;;;;;;5.78;3.60;;;22.20;79.50;;;;;;6308808;22;20007;-88
2022/07/20 03:50:39;;;;;;;6.85;3.75;;;22.10;79.60;;;;;;6308168;22;20128;-88
2022/07/20 03:53:04;;;;;;;11.43;4.15;;;22.10;79.70;;;;;;6309370;22;20373;-87
2022/07/20 03:55:30;;;;;;;8.52;3.88;;;22.10;79.70;;;;;;6308926;22;20015;-88
2022/07/20 03:57:56;;;;;;;6.82;4.18;;;22.10;79.80;;;;;;6308785;22;20466;-88
2022/07/20 04:00:21;;;;;;;8.55;4.03;;;22.00;79.90;;;;;;6308620;22;20344;-89
2022/07/20 04:02:47;;;;;;;8.35;4.18;;;22.00;80.00;;;;;;6309129;22;20391;-87
2022/07/20 04:05:13;;;;;;;10.20;4.22;;;22.00;80.30;;;;;;6311297;22;20011;-87
2022/07/20 04:07:39;;;;;;;8.65;3.78;;;22.00;80.20;;;;;;6309735;22;20007;-87
2022/07/20 04:10:04;;;;;;;12.40;4.65;;;22.00;80.40;;;;;;6309543;22;20014;-86
2022/07/20 04:12:30;;;;;;;9.40;4.22;;;22.00;80.60;;;;;;6307893;22;20011;-88
2022/07/20 04:14:56;;;;;;;6.57;3.90;;;22.00;80.50;;;;;;6282093;22;20007;-89
2022/07/20 04:17:22;;;;;;;9.75;4.00;;;22.00;80.70;;;;;;6282047;22;20035;-88
2022/07/20 04:19:49;;;;;;;6.10;3.83;;;22.00;81.00;;;;;;6309838;22;20090;-87
2022/07/20 04:22:14;;;;;;;6.40;3.80;;;21.90;81.20;;;;;;6310258;22;20018;-83
2022/07/20 04:24:40;;;;;;;8.30;4.22;;;21.90;81.20;;;;;;6309522;22;20007;-83
2022/07/20 04:27:06;;;;;;;8.18;3.78;;;21.90;81.30;;;;;;6310902;22;20003;-86
2022/07/20 04:29:32;;;;;;;11.30;4.53;;;21.90;81.30;;;;;;6284166;22;20446;-87
2022/07/20 04:31:58;;;;;;;10.30;4.30;;;21.90;81.40;;;;;;6309972;22;20011;-85
2022/07/20 04:34:24;;;;;;;7.72;3.92;;;21.90;81.40;;;;;;6310065;22;20082;-87
2022/07/20 04:36:49;;;;;;;9.27;4.30;;;22.00;81.30;;;;;;6309966;22;20015;-88
2022/07/20 04:39:15;;;;;;;7.82;3.60;;;22.00;81.40;;;;;;6284382;22;20379;-87
2022/07/20 04:41:41;;;;;;;6.95;4.30;;;22.00;81.50;;;;;;6283811;22;20128;-88
2022/07/20 04:44:07;;;;;;;6.20;3.65;;;22.10;81.20;;;;;;6310096;22;20456;-87
2022/07/20 04:46:33;;;;;;;8.63;3.90;;;22.10;80.90;;;;;;6309394;22;20460;-86
2022/07/20 04:49:00;;;;;;;9.55;3.80;;;22.10;80.90;;;;;;6284483;22;20015;-86
2022/07/20 04:51:25;;;;;;;8.75;4.03;;;22.10;81.00;;;;;;6283908;22;20015;-84
2022/07/20 04:53:51;;;;;;;6.78;3.60;;;22.20;81.20;;;;;;6309208;22;20064;-87
2022/07/20 04:56:18;;;;;;;10.77;3.58;;;22.20;81.10;;;;;;6309926;22;20072;-87
2022/07/20 04:58:47;;;;;;;8.90;4.28;;;22.20;81.10;;;;;;6310515;22;20022;-87
2022/07/20 05:01:14;;;;;;;8.80;3.28;;;22.30;81.10;;;;;;6310103;22;20011;-89
2022/07/20 05:03:40;;;;;;;7.32;3.60;;;22.30;81.50;;;;;;6284852;22;20015;-87
2022/07/20 05:06:05;;;;;;;20.20;4.10;;;22.30;81.30;;;;;;6310180;22;20432;-86
2022/07/20 05:08:31;;;;;;;6.68;3.40;;;22.30;81.10;;;;;;6310235;22;20007;-87
2022/07/20 05:10:57;;;;;;;9.52;3.88;;;22.40;81.10;;;;;;6310054;22;20459;-87
2022/07/20 05:13:22;;;;;;;10.70;3.58;;;22.40;81.10;;;;;;6284414;22;20011;-88
2022/07/20 05:15:48;;;;;;;7.03;3.70;;;22.40;81.00;;;;;;6309855;22;20017;-87
2022/07/20 05:18:13;;;;;;;7.30;3.63;;;22.50;81.30;;;;;;6309509;22;20332;-87
2022/07/20 05:20:39;;;;;;;6.57;3.83;;;22.50;81.40;;;;;;6310481;22;20019;-87
2022/07/20 05:23:05;;;;;;;5.68;3.75;;;22.50;81.30;;;;;;6310172;22;20018;-88
2022/07/20 05:25:30;;;;;;;10.13;4.03;;;22.60;81.70;;;;;;6309930;22;20046;-88
2022/07/20 05:27:56;;;;;;;8.75;4.25;;;22.60;81.80;;;;;;6309657;22;20068;-86
2022/07/20 05:30:21;;;;;;;10.57;3.83;;;22.60;82.00;;;;;;6284019;22;20011;-87
2022/07/20 05:32:47;;;;;;;7.00;3.92;;;22.60;82.20;;;;;;6309563;22;20046;-87
2022/07/20 05:35:13;;;;;;;7.78;3.85;;;22.60;82.20;;;;;;6309079;22;20441;-87
2022/07/20 05:37:39;;;;;;;9.98;4.15;;;22.60;82.00;;;;;;6282900;22;20086;-85
2022/07/20 05:40:05;;;;;;;11.52;4.00;;;22.70;82.50;;;;;;6308831;22;20333;-87
2022/07/20 05:42:31;;;;;;;7.57;4.30;;;22.70;82.50;;;;;;6284069;22;20043;-86
2022/07/20 05:44:56;;;;;;;12.75;4.20;;;22.70;82.30;;;;;;6309422;22;20015;-86
2022/07/20 05:47:22;;;;;;;9.32;3.97;;;22.80;82.40;;;;;;6308760;22;20013;-88
2022/07/20 05:49:48;;;;;;;7.45;4.13;;;22.80;82.30;;;;;;6283640;22;20440;-86
2022/07/20 05:52:15;;;;;;;7.50;4.63;;;22.80;82.30;;;;;;6309048;22;20015;-86
2022/07/20 05:54:40;;;;;;;8.52;4.10;;;22.90;82.50;;;;;;6310710;22;20046;-86
2022/07/20 05:57:06;;;;;;;9.50;4.22;;;22.90;82.80;;;;;;6310619;22;20011;-86
2022/07/20 05:59:31;;;;;;;9.73;4.15;;;22.90;83.00;;;;;;6308551;22;20019;-86
2022/07/20 06:01:57;;;;;;;7.28;4.60;;;23.00;83.30;;;;;;6308966;22;20018;-87
2022/07/20 06:04:23;;;;;;;11.88;4.57;;;23.00;83.80;;;;;;6309486;22;20014;-84
2022/07/20 06:06:49;;;;;;;8.23;4.13;;;23.00;84.00;;;;;;6311316;22;20007;-88
2022/07/20 06:09:15;;;;;;;9.82;4.68;;;23.10;84.20;;;;;;6311793;22;20034;-88
2022/07/20 06:11:40;;;;;;;8.82;4.50;;;23.10;84.70;;;;;;6285104;22;20019;-87
2022/07/20 06:14:06;;;;;;;9.30;4.40;;;23.20;84.90;;;;;;6309015;22;20362;-84
2022/07/20 06:16:32;;;;;;;10.57;4.75;;;23.30;84.60;;;;;;6310840;22;20015;-86
2022/07/20 06:18:57;;;;;;;10.07;5.03;;;23.40;84.10;;;;;;6308123;22;20393;-85
2022/07/20 06:21:23;;;;;;;8.32;4.78;;;23.60;84.10;;;;;;6309779;22;20007;-85
2022/07/20 06:23:49;;;;;;;9.75;5.53;;;23.70;84.20;;;;;;6308119;22;20039;-86
2022/07/20 06:26:25;;;;;;;10.80;5.55;;;23.70;84.50;;;;;;6308576;22;20018;-86
2022/07/20 06:28:51;;;;;;;12.30;5.85;;;23.90;85.10;;;;;;6307639;22;20019;-87
2022/07/20 06:31:17;;;;;;;13.55;6.20;;;23.90;85.30;;;;;;6310591;22;20479;-86
2022/07/20 06:33:42;;;;;;;11.07;6.25;;;24.00;85.90;;;;;;6309576;22;20011;-88
2022/07/20 06:36:08;;;;;;;12.27;5.90;;;24.00;86.60;;;;;;6309334;22;20011;-78
2022/07/20 06:38:34;;;;;;;10.95;7.07;;;24.00;87.30;;;;;;6308797;22;20011;-84
2022/07/20 06:41:01;;;;;;;15.77;6.82;;;24.10;88.20;;;;;;6308147;22;20098;-84
2022/07/20 06:43:27;;;;;;;16.50;7.18;;;24.10;89.60;;;;;;6307629;22;20520;-85
2022/07/20 06:45:52;;;;;;;10.63;6.57;;;24.10;90.20;;;;;;6308494;22;20050;-85
2022/07/20 06:48:19;;;;;;;14.63;7.68;;;24.10;90.50;;;;;;6308222;22;20011;-87
2022/07/20 06:50:45;;;;;;;12.52;7.47;;;24.20;91.00;;;;;;6307666;22;20015;-85
2022/07/20 06:53:11;;;;;;;15.98;9.07;;;24.10;91.40;;;;;;6308450;22;20047;-83
2022/07/20 06:55:37;;;;;;;16.30;10.63;;;24.20;92.30;;;;;;6308001;22;20022;-84
2022/07/20 06:58:02;;;;;;;18.63;10.88;;;24.20;93.70;;;;;;6310796;22;20009;-85
2022/07/20 07:00:29;;;;;;;18.00;11.15;;;24.30;95.20;;;;;;6309308;22;20015;-86
2022/07/20 07:02:55;;;;;;;19.85;11.63;;;24.30;96.00;;;;;;6282049;22;20385;-84
2022/07/20 07:05:21;;;;;;;17.48;11.73;;;24.30;96.70;;;;;;6308880;22;20070;-84
2022/07/20 07:07:47;;;;;;;21.40;11.82;;;24.40;97.20;;;;;;6309885;22;20039;-84
2022/07/20 07:10:13;;;;;;;20.73;12.23;;;24.40;97.80;;;;;;6307628;22;20460;-85
2022/07/20 07:12:38;;;;;;;20.75;12.35;;;24.40;98.20;;;;;;6307400;22;20015;-85
2022/07/20 07:15:04;;;;;;;25.83;14.02;;;24.40;99.00;;;;;;6309429;22;20503;-86
2022/07/20 07:17:30;;;;;;;24.85;14.27;;;24.50;99.90;;;;;;6282745;22;20054;-85
2022/07/20 07:19:58;;;;;;;20.80;14.27;;;24.50;99.90;;;;;;6307041;22;20022;-76
2022/07/20 07:22:25;;;;;;;24.27;13.95;;;24.50;99.90;;;;;;6308552;22;20056;-85
2022/07/20 07:24:51;;;;;;;24.98;14.60;;;24.50;99.90;;;;;;6282282;22;20439;-83
2022/07/20 07:27:16;;;;;;;24.25;14.95;;;24.60;99.90;;;;;;6306931;22;20044;-83
2022/07/20 07:29:42;;;;;;;22.50;15.43;;;24.50;99.90;;;;;;6307318;22;20015;-84
2022/07/20 07:32:08;;;;;;;29.50;15.80;;;24.60;99.90;;;;;;6307854;22;20080;-84
2022/07/20 07:34:34;;;;;;;37.22;17.48;;;24.70;99.90;;;;;;6282126;22;20013;-85
2022/07/20 07:36:59;;;;;;;27.05;16.83;;;24.70;99.90;;;;;;6307155;22;20019;-84
2022/07/20 07:39:25;;;;;;;27.00;16.70;;;24.70;99.90;;;;;;6308087;22;20023;-85
2022/07/20 07:41:51;;;;;;;27.05;16.50;;;24.90;99.90;;;;;;6307415;22;20314;-86
2022/07/20 07:44:16;;;;;;;22.10;16.33;;;24.90;99.90;;;;;;6281746;22;20047;-85
2022/07/20 07:46:42;;;;;;;24.27;15.60;;;25.00;99.90;;;;;;6307342;22;20387;-87
2022/07/20 07:49:08;;;;;;;30.13;18.67;;;25.10;99.90;;;;;;6306800;22;20424;-78
2022/07/20 07:51:33;;;;;;;25.95;18.77;;;25.20;99.90;;;;;;6308728;22;20092;-79
2022/07/20 07:53:59;;;;;;;28.67;19.27;;;25.20;99.90;;;;;;6306697;22;20015;-84
2022/07/20 07:56:25;;;;;;;29.45;19.98;;;25.30;99.90;;;;;;6308722;22;20011;-83
2022/07/20 07:58:51;;;;;;;32.63;20.70;;;25.40;99.90;;;;;;6308680;22;20440;-85
2022/07/20 08:01:17;;;;;;;32.25;20.48;;;25.40;99.90;;;;;;6281791;22;20007;-82
2022/07/20 08:03:43;;;;;;;31.05;21.08;;;25.40;99.90;;;;;;6307199;22;20011;-84
2022/07/20 08:06:09;;;;;;;35.72;21.42;;;25.40;99.90;;;;;;6307035;22;20018;-84
2022/07/20 08:08:34;;;;;;;31.27;20.17;;;25.40;99.90;;;;;;6306653;22;20011;-82
2022/07/20 08:11:00;;;;;;;29.40;20.27;;;25.40;99.90;;;;;;6306519;22;20047;-85
2022/07/20 08:13:27;;;;;;;35.70;21.20;;;25.50;99.90;;;;;;6309606;22;20011;-83
2022/07/20 08:15:52;;;;;;;32.40;21.00;;;25.60;99.90;;;;;;6308801;22;20008;-84
2022/07/20 08:18:18;;;;;;;39.83;21.85;;;25.60;99.90;;;;;;6307328;22;20090;-85
2022/07/20 08:20:44;;;;;;;35.55;22.10;;;25.70;99.90;;;;;;6308200;22;20015;-84
2022/07/20 08:23:10;;;;;;;33.03;21.63;;;25.70;99.90;;;;;;6307568;22;20087;-84
2022/07/20 08:25:36;;;;;;;37.28;21.42;;;25.70;99.90;;;;;;6310301;22;20502;-85
2022/07/20 08:28:14;;;;;;;31.33;20.92;;;25.70;99.90;;;;;;6311605;22;20018;-85
2022/07/20 08:30:42;;;;;;;32.20;20.23;;;25.70;99.90;;;;;;6312004;22;20018;-87
2022/07/20 08:33:10;;;;;;;36.83;21.67;;;25.80;99.90;;;;;;6308478;22;20022;-84
2022/07/20 08:35:37;;;;;;;30.83;20.60;;;25.80;99.90;;;;;;6306923;22;20094;-83
2022/07/20 08:38:03;;;;;;;31.67;21.45;;;25.80;99.90;;;;;;6307518;22;20080;-88
2022/07/20 08:40:29;;;;;;;35.03;21.65;;;25.80;99.90;;;;;;6306732;22;20019;-83
2022/07/20 08:42:56;;;;;;;36.25;21.88;;;25.90;99.90;;;;;;6309077;22;20008;-86
2022/07/20 08:45:22;;;;;;;30.83;21.33;;;26.00;99.90;;;;;;6310017;22;20026;-83
2022/07/20 08:47:49;;;;;;;28.88;21.67;;;26.00;99.90;;;;;;6307945;22;20011;-87
2022/07/20 08:50:26;;;;;;;37.05;23.23;;;26.10;99.90;;;;;;6308415;22;20019;-85
2022/07/20 08:52:53;;;;;;;30.38;21.23;;;26.10;99.90;;;;;;6307562;22;20018;-87
2022/07/20 08:55:19;;;;;;;35.42;21.52;;;26.10;99.90;;;;;;6307412;22;20014;-83
2022/07/20 08:57:46;;;;;;;32.58;21.60;;;26.10;99.90;;;;;;6306808;22;20019;-85
2022/07/20 09:00:12;;;;;;;38.42;23.58;;;26.10;99.90;;;;;;6308878;22;20386;-82
2022/07/20 09:02:57;;;;;;;33.65;22.58;;;26.10;99.90;;;;;;6307970;22;20082;-86
2022/07/20 09:05:25;;;;;;;32.17;20.90;;;26.10;99.90;;;;;;6308758;22;20007;-89
2022/07/20 09:07:52;;;;;;;31.48;19.88;;;26.10;99.90;;;;;;6309265;22;20007;-86
2022/07/20 09:10:25;;;;;;;26.42;18.33;;;26.10;99.90;;;;;;6308830;22;20050;-86
2022/07/20 09:12:53;;;;;;;30.67;18.50;;;26.10;99.90;;;;;;6311710;22;20056;-83
2022/07/20 09:15:35;;;;;;;30.25;19.42;;;26.10;99.90;;;;;;6310086;22;20007;-86
2022/07/20 09:18:11;;;;;;;25.98;17.45;;;26.10;99.90;;;;;;6309026;22;20011;-86
2022/07/20 09:20:40;;;;;;;30.77;18.08;;;26.10;99.90;;;;;;6311310;22;20015;-84
2022/07/20 09:23:09;;;;;;;28.77;18.13;;;26.10;99.90;;;;;;6310535;22;20014;-87
2022/07/20 09:25:35;;;;;;;27.35;17.27;;;26.10;99.90;;;;;;6283823;22;20049;-85
2022/07/20 09:28:01;;;;;;;30.75;17.25;;;26.30;99.90;;;;;;6311304;22;20444;-84
2022/07/20 09:30:27;;;;;;;29.52;16.35;;;26.30;99.90;;;;;;6309220;22;20110;-87
2022/07/20 09:33:02;;;;;;;31.38;17.45;;;26.40;99.90;;;;;;6308882;22;20042;-88
2022/07/20 09:35:32;;;;;;;27.10;17.13;;;26.50;99.90;;;;;;6309664;22;20480;-83
2022/07/20 09:38:01;;;;;;;31.20;15.80;;;26.40;99.90;;;;;;6309626;22;20030;-91
2022/07/20 09:40:27;;;;;;;27.83;15.95;;;26.40;99.90;;;;;;6308502;22;20019;-86
2022/07/20 09:42:53;;;;;;;25.45;15.77;;;26.50;99.90;;;;;;6309142;22;20050;-87
2022/07/20 09:45:20;;;;;;;25.77;15.75;;;26.50;99.90;;;;;;6308283;22;20345;-85
2022/07/20 09:48:04;;;;;;;22.85;14.30;;;26.30;99.90;;;;;;6308715;22;20015;-84
2022/07/20 09:50:35;;;;;;;25.63;14.32;;;26.40;99.90;;;;;;6309556;22;20022;-88
2022/07/20 09:53:01;;;;;;;20.25;12.63;;;26.60;99.90;;;;;;6309098;22;20410;-87
2022/07/20 09:55:27;;;;;;;21.02;13.35;;;26.70;99.90;;;;;;6311416;22;20012;-86
2022/07/20 09:57:54;;;;;;;21.35;12.93;;;26.80;99.90;;;;;;6308773;22;20011;-83
2022/07/20 10:00:21;;;;;;;21.90;12.40;;;26.90;99.90;;;;;;6308667;22;20349;-86
2022/07/20 10:02:48;;;;;;;20.45;13.05;;;26.90;99.90;;;;;;6309082;22;20022;-86
2022/07/20 10:05:18;;;;;;;21.27;12.13;;;27.00;99.90;;;;;;6310078;22;20437;-89
2022/07/20 10:07:45;;;;;;;20.92;12.13;;;26.90;99.90;;;;;;6308743;22;20011;-86
2022/07/20 10:10:11;;;;;;;19.48;11.27;;;27.00;99.90;;;;;;6308308;22;20022;-85
2022/07/20 10:12:37;;;;;;;20.70;11.20;;;27.00;99.90;;;;;;6308490;22;20075;-86
2022/07/20 10:15:08;;;;;;;21.55;11.40;;;27.10;99.90;;;;;;6309067;22;20090;-85
2022/07/20 10:17:36;;;;;;;21.05;11.13;;;27.10;99.90;;;;;;6310109;22;20371;-84
2022/07/20 10:20:02;;;;;;;21.08;11.55;;;27.20;99.90;;;;;;6308102;22;20087;-85
2022/07/20 10:22:31;;;;;;;21.00;10.52;;;27.10;99.90;;;;;;6308307;22;20506;-86
2022/07/20 10:25:16;;;;;;;20.90;10.75;;;27.30;99.90;;;;;;6309449;22;20011;-85
2022/07/20 10:27:41;;;;;;;32.57;10.90;;;27.30;99.90;;;;;;6310043;22;20014;-85
2022/07/20 10:30:19;;;;;;;18.98;10.93;;;27.30;99.90;;;;;;6307989;22;20016;-88
2022/07/20 10:32:57;;;;;;;17.52;10.95;;;27.30;99.90;;;;;;6282756;22;20014;-85
2022/07/20 10:35:29;;;;;;;21.73;11.25;;;27.30;99.90;;;;;;6308845;22;20047;-89
2022/07/20 10:37:56;;;;;;;20.45;10.75;;;27.30;99.90;;;;;;6282851;22;20011;-87
2022/07/20 10:40:28;;;;;;;16.08;11.10;;;27.50;99.90;;;;;;6308599;22;20015;-85
2022/07/20 10:43:14;;;;;;;17.35;11.00;;;27.60;99.90;;;;;;6309875;22;20018;-86
2022/07/20 10:45:42;;;;;;;17.80;11.20;;;27.60;99.80;;;;;;6308907;22;20015;-82
2022/07/20 10:48:14;;;;;;;16.08;10.48;;;27.40;98.30;;;;;;6308649;22;20007;-84
2022/07/20 10:50:55;;;;;;;16.85;11.50;;;27.40;98.50;;;;;;6308218;22;20341;-86
2022/07/20 10:53:24;;;;;;;18.38;10.73;;;27.40;97.50;;;;;;6282759;22;20508;-87
2022/07/20 10:55:55;;;;;;;18.15;9.77;;;27.50;97.60;;;;;;6282699;22;20065;-85
2022/07/20 10:58:32;;;;;;;15.43;9.27;;;27.60;97.60;;;;;;6308618;22;20321;-86
2022/07/20 11:01:05;;;;;;;14.10;9.52;;;27.70;97.00;;;;;;6308466;22;20054;-89
2022/07/20 11:03:37;;;;;;;16.95;8.60;;;27.80;97.10;;;;;;6307962;22;20011;-84
2022/07/20 11:06:16;;;;;;;13.88;8.98;;;27.60;96.50;;;;;;6310019;22;20015;-83
2022/07/20 11:08:48;;;;;;;12.60;8.43;;;27.70;97.00;;;;;;6311271;22;20030;-85
2022/07/20 11:11:19;;;;;;;13.35;8.68;;;27.90;97.40;;;;;;6308700;22;20043;-85
2022/07/20 11:13:46;;;;;;;13.13;8.75;;;27.90;97.20;;;;;;6307992;22;20012;-84
2022/07/20 11:16:12;;;;;;;14.95;8.57;;;27.90;97.20;;;;;;6310025;22;20007;-85
2022/07/20 11:18:38;;;;;;;13.23;8.50;;;28.00;97.40;;;;;;6309256;22;20038;-85
2022/07/20 11:21:07;;;;;;;17.40;8.98;;;28.00;96.70;;;;;;6314337;22;20011;-85
2022/07/20 11:23:50;;;;;;;14.27;8.48;;;28.20;96.40;;;;;;6314171;22;20035;-85
2022/07/20 11:26:18;;;;;;;14.18;8.70;;;28.20;96.80;;;;;;6313284;22;20070;-86
2022/07/20 11:28:50;;;;;;;14.68;8.85;;;28.30;96.50;;;;;;6291840;22;20007;-86
2022/07/20 11:31:20;;;;;;;16.13;9.10;;;28.30;97.00;;;;;;6327892;22;20011;-83
2022/07/20 11:33:47;;;;;;;13.43;8.80;;;28.30;96.90;;;;;;6326570;22;20035;-83
2022/07/20 11:36:20;;;;;;;15.43;8.20;;;28.40;96.50;;;;;;6329902;22;20078;-86
2022/07/20 11:38:49;;;;;;;12.57;7.80;;;28.50;96.60;;;;;;6329545;22;20003;-81
2022/07/20 11:41:21;;;;;;;14.98;8.52;;;28.70;96.40;;;;;;6320826;22;20019;-86
2022/07/20 11:43:51;;;;;;;12.23;7.45;;;28.70;96.60;;;;;;6312920;22;20074;-87
2022/07/20 11:46:23;;;;;;;11.38;7.57;;;28.80;96.80;;;;;;6311445;22;20011;-86
2022/07/20 11:48:59;;;;;;;13.30;7.18;;;28.80;96.60;;;;;;6311408;22;20018;-85
2022/07/20 11:51:31;;;;;;;10.07;7.22;;;28.70;96.10;;;;;;6309938;22;20011;-89
2022/07/20 11:53:59;;;;;;;11.98;7.55;;;28.80;96.60;;;;;;6311793;22;20029;-86
2022/07/20 11:56:27;;;;;;;14.57;7.60;;;28.90;96.40;;;;;;6313047;22;20057;-84
2022/07/20 11:58:56;;;;;;;13.40;7.47;;;28.90;96.20;;;;;;6310633;22;20382;-83
2022/07/20 12:01:28;;;;;;;12.25;6.95;;;28.90;96.20;;;;;;6310132;22;20366;-85
2022/07/20 12:03:56;;;;;;;12.07;7.70;;;29.10;96.40;;;;;;6309195;22;20175;-85
2022/07/20 12:06:24;;;;;;;13.02;8.05;;;29.00;96.00;;;;;;6309755;22;20074;-86
2022/07/20 12:09:18;;;;;;;11.68;8.40;;;28.80;95.70;;;;;;6309242;22;20011;-85
2022/07/20 12:12:00;;;;;;;12.50;8.02;;;28.90;95.70;;;;;;6303200;22;20011;-86
2022/07/20 12:14:43;;;;;;;13.40;8.25;;;28.90;95.80;;;;;;6310490;22;20014;-85
2022/07/20 12:17:23;;;;;;;12.55;7.88;;;28.80;95.90;;;;;;6310112;22;20392;-83
2022/07/20 12:19:51;;;;;;;15.48;8.10;;;28.70;95.60;;;;;;6308046;22;20082;-83
2022/07/20 12:22:27;;;;;;;13.63;9.20;;;28.70;95.60;;;;;;6308025;22;20016;-86
2022/07/20 12:24:55;;;;;;;17.83;8.50;;;28.80;95.40;;;;;;6308622;22;20018;-86
2022/07/20 12:27:22;;;;;;;15.13;8.85;;;28.80;95.00;;;;;;6283221;22;20012;-86
2022/07/20 12:29:48;;;;;;;12.75;8.18;;;29.00;95.30;;;;;;6309107;22;20012;-87
2022/07/20 12:32:16;;;;;;;13.15;8.55;;;29.10;95.70;;;;;;6309777;22;20297;-85
2022/07/20 12:34:53;;;;;;;14.38;8.80;;;29.00;95.30;;;;;;6309209;22;20455;-88
2022/07/20 12:37:21;;;;;;;15.00;9.07;;;29.10;95.70;;;;;;6311500;22;20087;-85
2022/07/20 12:39:53;;;;;;;16.50;8.20;;;29.20;95.50;;;;;;6283182;22;20093;-83
2022/07/20 12:42:24;;;;;;;11.55;7.90;;;29.00;94.20;;;;;;6310854;22;20570;-84
2022/07/20 12:45:01;;;;;;;11.95;7.32;;;29.10;94.70;;;;;;6310490;22;20011;-86
2022/07/20 12:47:26;;;;;;;13.43;7.70;;;29.20;94.10;;;;;;6284969;22;20019;-84
2022/07/20 12:49:53;;;;;;;11.57;7.40;;;29.20;94.30;;;;;;6311191;22;20015;-87
2022/07/20 12:52:19;;;;;;;14.90;8.07;;;29.20;94.10;;;;;;6311067;22;20012;-86
2022/07/20 12:54:45;;;;;;;12.43;7.47;;;29.10;94.20;;;;;;6309495;22;20074;-83
2022/07/20 12:57:13;;;;;;;13.20;7.80;;;29.00;94.20;;;;;;6284761;22;20059;-84
2022/07/20 12:59:39;;;;;;;9.50;7.00;;;29.00;94.40;;;;;;6310804;22;20098;-85
2022/07/20 13:02:05;;;;;;;11.65;7.22;;;29.10;94.70;;;;;;6310582;22;20015;-87
2022/07/20 13:04:30;;;;;;;11.27;6.75;;;29.40;94.50;;;;;;6310970;22;20013;-87
2022/07/20 13:06:56;;;;;;;11.85;6.55;;;29.10;94.00;;;;;;6310562;22;20007;-84
2022/07/20 13:09:23;;;;;;;11.68;7.18;;;29.10;93.80;;;;;;6310266;22;20015;-84
2022/07/20 13:11:50;;;;;;;13.60;7.47;;;29.00;93.50;;;;;;6310078;22;20015;-83
2022/07/20 13:14:19;;;;;;;11.05;6.50;;;29.00;93.50;;;;;;6284232;22;20016;-84
2022/07/20 13:16:46;;;;;;;14.60;7.05;;;29.00;93.70;;;;;;6309490;22;20015;-85
2022/07/20 13:19:12;;;;;;;8.65;6.15;;;29.10;93.70;;;;;;6311204;22;20004;-84
2022/07/20 13:21:37;;;;;;;11.32;6.78;;;29.20;93.50;;;;;;6312330;22;20018;-86
2022/07/20 13:24:04;;;;;;;9.73;5.97;;;29.20;93.50;;;;;;6310577;22;20046;-84
2022/07/20 13:26:29;;;;;;;10.43;5.97;;;29.00;93.30;;;;;;6311340;22;20072;-85
2022/07/20 13:28:55;;;;;;;9.05;5.32;;;29.10;93.40;;;;;;6311331;22;20043;-86
2022/07/20 13:31:20;;;;;;;8.70;5.03;;;29.20;92.60;;;;;;6309876;22;19999;-86
2022/07/20 13:33:46;;;;;;;6.97;5.13;;;29.10;92.10;;;;;;6311242;22;20086;-87
2022/07/20 13:36:13;;;;;;;7.10;4.85;;;28.90;92.10;;;;;;6285056;22;20481;-89
2022/07/20 13:38:39;;;;;;;12.27;5.20;;;28.90;92.60;;;;;;6283523;22;20015;-85
2022/07/20 13:41:05;;;;;;;8.40;5.45;;;28.60;92.00;;;;;;6309532;22;20045;-84
2022/07/20 13:43:32;;;;;;;6.97;5.15;;;28.60;92.50;;;;;;6309766;22;20015;-84
2022/07/20 13:45:59;;;;;;;8.65;5.22;;;28.60;92.60;;;;;;6283254;22;20015;-86
2022/07/20 13:48:26;;;;;;;7.10;5.20;;;28.70;92.50;;;;;;6309583;22;20015;-84
2022/07/20 13:50:51;;;;;;;6.88;5.05;;;28.40;92.30;;;;;;6309280;22;20367;-88
2022/07/20 13:53:18;;;;;;;11.68;6.20;;;28.20;92.70;;;;;;6311592;22;20022;-87
2022/07/20 13:55:44;;;;;;;10.65;6.15;;;28.20;92.90;;;;;;6309086;22;20015;-85
2022/07/20 13:58:11;;;;;;;11.15;5.38;;;27.90;93.00;;;;;;6309721;22;20044;-87
2022/07/20 14:00:37;;;;;;;10.52;6.05;;;27.90;93.10;;;;;;6309191;22;20383;-84
2022/07/20 14:03:02;;;;;;;8.70;5.70;;;28.00;93.20;;;;;;6311440;22;20015;-83
2022/07/20 14:05:28;;;;;;;10.18;5.93;;;27.90;93.30;;;;;;6308857;22;20087;-87
2022/07/20 14:07:54;;;;;;;10.93;6.22;;;28.10;93.90;;;;;;6310828;22;20488;-87
2022/07/20 14:10:20;;;;;;;11.40;6.22;;;28.20;94.00;;;;;;6309166;22;20015;-86
2022/07/20 14:12:46;;;;;;;10.95;5.97;;;28.10;93.50;;;;;;6311081;22;20045;-85
2022/07/20 14:15:12;;;;;;;10.95;6.57;;;28.10;93.50;;;;;;6308906;22;20007;-87
2022/07/20 14:17:39;;;;;;;7.40;6.00;;;27.90;93.50;;;;;;6311352;22;20050;-88
2022/07/20 14:20:08;;;;;;;8.80;6.43;;;28.00;94.00;;;;;;6310003;22;20003;-87
2022/07/20 14:22:34;;;;;;;11.25;6.88;;;28.10;94.30;;;;;;6308590;22;20018;-84
2022/07/20 14:25:02;;;;;;;13.55;7.43;;;28.30;94.70;;;;;;6283420;22;20046;-85
2022/07/20 14:27:29;;;;;;;12.18;7.45;;;28.50;94.60;;;;;;6309061;22;20444;-86
2022/07/20 14:29:55;;;;;;;14.45;8.13;;;28.60;94.60;;;;;;6311022;22;20364;-87
2022/07/20 14:32:20;;;;;;;14.45;8.40;;;28.60;94.80;;;;;;6308888;22;20022;-84
2022/07/20 14:34:46;;;;;;;14.38;8.60;;;28.50;94.30;;;;;;6310217;22;20373;-84
2022/07/20 14:37:12;;;;;;;12.57;8.35;;;28.30;94.90;;;;;;6282983;22;20015;-84
2022/07/20 14:39:38;;;;;;;12.20;8.35;;;28.40;95.00;;;;;;6308439;22;20018;-83
2022/07/20 14:42:04;;;;;;;13.32;9.10;;;28.60;95.50;;;;;;6310894;22;20016;-86
2022/07/20 14:44:31;;;;;;;11.60;8.20;;;28.80;95.90;;;;;;6308107;22;20340;-85
2022/07/20 14:46:57;;;;;;;14.13;7.68;;;28.90;95.50;;;;;;6308995;22;20458;-86
2022/07/20 14:49:22;;;;;;;11.13;7.40;;;28.90;94.90;;;;;;6309230;22;20011;-88
2022/07/20 14:51:49;;;;;;;15.07;7.90;;;28.70;95.00;;;;;;6283123;22;20068;-86
2022/07/20 14:54:15;;;;;;;14.25;7.47;;;28.60;95.00;;;;;;6310576;22;20314;-84
2022/07/20 14:56:41;;;;;;;12.02;7.70;;;28.60;95.20;;;;;;6308642;22;20026;-88
2022/07/20 14:59:07;;;;;;;11.45;7.22;;;28.40;95.20;;;;;;6309166;22;20556;-87
2022/07/20 15:01:36;;;;;;;13.13;7.82;;;28.10;95.30;;;;;;6308532;22;20050;-87
2022/07/20 15:04:03;;;;;;;13.38;7.53;;;27.70;96.00;;;;;;6308451;22;20031;-87
2022/07/20 15:06:29;;;;;;;11.77;7.18;;;27.50;96.20;;;;;;6309656;22;20007;-83
2022/07/20 15:09:00;;;;;;;11.90;6.90;;;27.20;96.10;;;;;;6307989;22;20015;-87
2022/07/20 15:11:26;;;;;;;11.80;7.20;;;27.10;96.60;;;;;;6308943;22;20384;-86
2022/07/20 15:13:52;;;;;;;11.48;7.32;;;27.00;97.40;;;;;;6308899;22;20014;-87
2022/07/20 15:16:19;;;;;;;11.50;6.05;;;26.90;97.70;;;;;;6310345;22;20011;-90
2022/07/20 15:18:45;;;;;;;11.73;5.32;;;26.80;97.50;;;;;;6307477;22;20334;-86
2022/07/20 15:21:11;;;;;;;9.13;5.07;;;26.70;97.20;;;;;;6308088;22;20019;-85
2022/07/20 15:23:37;;;;;;;12.40;5.35;;;26.60;97.40;;;;;;6308616;22;20011;-89
2022/07/20 15:26:03;;;;;;;9.23;4.60;;;26.40;97.60;;;;;;6308418;22;20011;-85
2022/07/20 15:28:29;;;;;;;9.30;5.22;;;26.20;97.90;;;;;;6308184;22;20015;-87
2022/07/20 15:30:55;;;;;;;12.13;5.60;;;26.00;98.20;;;;;;6307452;22;20352;-87
2022/07/20 15:33:20;;;;;;;11.85;6.40;;;25.90;98.60;;;;;;6307516;22;20448;-87
2022/07/20 15:35:46;;;;;;;12.68;6.28;;;25.70;99.40;;;;;;6308861;22;20017;-85
2022/07/20 15:38:12;;;;;;;17.25;6.70;;;25.60;99.90;;;;;;6310399;22;20018;-85